sensor_id;sensor_type;location;lat;lon;timestamp;pressure;altitude;pressure_sealevel;temperature;humidity
22333;BME280;11334;36.986;-121.936;2023-09-30T00:01:22;100528.94;;;24.93;66.79
22333;BME280;11334;36.986;-121.936;2023-09-30T00:03:48;100535.16;;;24.88;67.11
22333;BME280;11334;36.986;-121.936;2023-09-30T00:06:15;100523.75;;;24.86;66.55
22333;BME280;11334;36.986;-121.936;2023-09-30T00:08:41;100533.97;;;24.84;66.81
22333;BME280;11334;36.986;-121.936;2023-09-30T00:11:09;100531.50;;;24.83;67.01
22333;BME280;11334;36.986;-121.936;2023-09-30T00:13:35;100536.38;;;24.81;66.92
22333;BME280;11334;36.986;-121.936;2023-09-30T00:16:01;100534.72;;;24.80;67.25
22333;BME280;11334;36.986;-121.936;2023-09-30T00:18:28;100527.16;;;24.82;66.68
22333;BME280;11334;36.986;-121.936;2023-09-30T00:20:54;100515.25;;;24.83;67.25
22333;BME280;11334;36.986;-121.936;2023-09-30T00:23:20;100515.34;;;24.88;67.00
22333;BME280;11334;36.986;-121.936;2023-09-30T00:25:47;100513.19;;;24.90;66.85
22333;BME280;11334;36.986;-121.936;2023-09-30T00:28:15;100517.91;;;24.99;66.17
22333;BME280;11334;36.986;-121.936;2023-09-30T00:30:42;100521.88;;;25.13;65.52
22333;BME280;11334;36.986;-121.936;2023-09-30T00:33:09;100527.66;;;25.21;65.73
22333;BME280;11334;36.986;-121.936;2023-09-30T00:35:36;100532.03;;;25.27;65.24
22333;BME280;11334;36.986;-121.936;2023-09-30T00:38:02;100524.47;;;25.29;64.99
22333;BME280;11334;36.986;-121.936;2023-09-30T00:40:29;100529.91;;;25.29;64.68
22333;BME280;11334;36.986;-121.936;2023-09-30T00:42:55;100526.88;;;25.26;64.82
22333;BME280;11334;36.986;-121.936;2023-09-30T00:45:21;100537.41;;;25.22;65.22
22333;BME280;11334;36.986;-121.936;2023-09-30T00:47:48;100527.03;;;25.14;65.23
22333;BME280;11334;36.986;-121.936;2023-09-30T00:50:14;100534.31;;;25.09;65.75
22333;BME280;11334;36.986;-121.936;2023-09-30T00:52:42;100518.72;;;25.00;65.87
22333;BME280;11334;36.986;-121.936;2023-09-30T00:55:09;100522.78;;;24.97;65.65
22333;BME280;11334;36.986;-121.936;2023-09-30T00:57:37;100524.84;;;24.90;66.19
22333;BME280;11334;36.986;-121.936;2023-09-30T01:00:05;100530.47;;;24.84;66.80
22333;BME280;11334;36.986;-121.936;2023-09-30T01:02:32;100529.75;;;24.72;66.92
22333;BME280;11334;36.986;-121.936;2023-09-30T01:05:01;100533.97;;;24.63;67.14
22333;BME280;11334;36.986;-121.936;2023-09-30T01:07:27;100533.38;;;24.56;67.94
22333;BME280;11334;36.986;-121.936;2023-09-30T01:09:53;100526.28;;;24.55;68.08
22333;BME280;11334;36.986;-121.936;2023-09-30T01:12:20;100528.94;;;24.50;68.38
22333;BME280;11334;36.986;-121.936;2023-09-30T01:14:46;100529.69;;;24.46;68.61
22333;BME280;11334;36.986;-121.936;2023-09-30T01:17:12;100535.88;;;24.42;68.70
22333;BME280;11334;36.986;-121.936;2023-09-30T01:19:43;100543.94;;;24.37;69.33
22333;BME280;11334;36.986;-121.936;2023-09-30T01:22:09;100536.22;;;24.29;69.20
22333;BME280;11334;36.986;-121.936;2023-09-30T01:24:42;100536.13;;;24.24;69.90
22333;BME280;11334;36.986;-121.936;2023-09-30T01:27:09;100539.75;;;24.13;70.13
22333;BME280;11334;36.986;-121.936;2023-09-30T01:29:35;100540.19;;;24.05;65.29
22333;BME280;11334;36.986;-121.936;2023-09-30T01:32:04;100536.25;;;23.80;62.17
22333;BME280;11334;36.986;-121.936;2023-09-30T01:34:35;100529.88;;;23.70;61.98
22333;BME280;11334;36.986;-121.936;2023-09-30T01:37:01;100542.72;;;23.63;62.68
22333;BME280;11334;36.986;-121.936;2023-09-30T01:39:28;100540.44;;;23.55;63.12
22333;BME280;11334;36.986;-121.936;2023-09-30T01:41:55;100541.63;;;23.47;62.42
22333;BME280;11334;36.986;-121.936;2023-09-30T01:44:22;100536.94;;;23.43;62.41
22333;BME280;11334;36.986;-121.936;2023-09-30T01:46:48;100543.06;;;23.39;63.15
22333;BME280;11334;36.986;-121.936;2023-09-30T01:49:15;100532.88;;;23.29;63.40
22333;BME280;11334;36.986;-121.936;2023-09-30T01:51:41;100532.81;;;23.24;63.27
22333;BME280;11334;36.986;-121.936;2023-09-30T01:54:07;100531.91;;;23.19;62.65
22333;BME280;11334;36.986;-121.936;2023-09-30T01:56:33;100539.00;;;23.09;63.42
22333;BME280;11334;36.986;-121.936;2023-09-30T01:59:00;100535.63;;;23.02;67.27
22333;BME280;11334;36.986;-121.936;2023-09-30T02:01:29;100532.94;;;22.90;68.44
22333;BME280;11334;36.986;-121.936;2023-09-30T02:03:55;100534.84;;;22.79;68.92
22333;BME280;11334;36.986;-121.936;2023-09-30T02:06:21;100532.22;;;22.56;70.70
22333;BME280;11334;36.986;-121.936;2023-09-30T02:08:47;100539.84;;;22.48;71.31
22333;BME280;11334;36.986;-121.936;2023-09-30T02:11:13;100533.66;;;22.36;71.87
22333;BME280;11334;36.986;-121.936;2023-09-30T02:13:41;100530.06;;;22.19;72.86
22333;BME280;11334;36.986;-121.936;2023-09-30T02:16:12;100528.81;;;22.04;74.00
22333;BME280;11334;36.986;-121.936;2023-09-30T02:18:43;100529.66;;;21.93;74.69
22333;BME280;11334;36.986;-121.936;2023-09-30T02:21:13;100530.13;;;21.79;75.56
22333;BME280;11334;36.986;-121.936;2023-09-30T02:23:39;100520.38;;;21.55;76.93
22333;BME280;11334;36.986;-121.936;2023-09-30T02:26:05;100525.50;;;21.45;77.48
22333;BME280;11334;36.986;-121.936;2023-09-30T02:28:32;100531.69;;;21.34;78.33
22333;BME280;11334;36.986;-121.936;2023-09-30T02:31:00;100530.09;;;21.16;79.04
22333;BME280;11334;36.986;-121.936;2023-09-30T02:33:26;100533.25;;;21.13;79.38
22333;BME280;11334;36.986;-121.936;2023-09-30T02:35:53;100533.53;;;21.05;79.59
22333;BME280;11334;36.986;-121.936;2023-09-30T02:38:19;100523.63;;;20.88;80.53
22333;BME280;11334;36.986;-121.936;2023-09-30T02:40:47;100519.31;;;20.87;80.64
22333;BME280;11334;36.986;-121.936;2023-09-30T02:43:15;100519.75;;;20.84;80.62
22333;BME280;11334;36.986;-121.936;2023-09-30T02:45:42;100519.16;;;20.82;80.86
22333;BME280;11334;36.986;-121.936;2023-09-30T02:48:09;100530.28;;;20.85;80.47
22333;BME280;11334;36.986;-121.936;2023-09-30T02:50:35;100530.91;;;20.87;80.25
22333;BME280;11334;36.986;-121.936;2023-09-30T02:53:02;100522.81;;;20.87;80.21
22333;BME280;11334;36.986;-121.936;2023-09-30T02:55:28;100522.22;;;20.85;79.94
22333;BME280;11334;36.986;-121.936;2023-09-30T02:57:54;100528.06;;;20.82;80.31
22333;BME280;11334;36.986;-121.936;2023-09-30T03:00:21;100531.81;;;20.81;80.50
22333;BME280;11334;36.986;-121.936;2023-09-30T03:02:53;100524.91;;;20.85;80.42
22333;BME280;11334;36.986;-121.936;2023-09-30T03:05:20;100531.56;;;20.83;80.76
22333;BME280;11334;36.986;-121.936;2023-09-30T03:07:47;100535.53;;;20.80;80.67
22333;BME280;11334;36.986;-121.936;2023-09-30T03:10:14;100542.44;;;20.76;80.56
22333;BME280;11334;36.986;-121.936;2023-09-30T03:12:48;100534.81;;;20.73;80.99
22333;BME280;11334;36.986;-121.936;2023-09-30T03:15:15;100537.94;;;20.70;80.91
22333;BME280;11334;36.986;-121.936;2023-09-30T03:17:41;100545.06;;;20.65;81.38
22333;BME280;11334;36.986;-121.936;2023-09-30T03:20:09;100535.63;;;20.56;81.74
22333;BME280;11334;36.986;-121.936;2023-09-30T03:22:41;100532.09;;;20.56;81.68
22333;BME280;11334;36.986;-121.936;2023-09-30T03:25:14;100535.47;;;20.51;81.90
22333;BME280;11334;36.986;-121.936;2023-09-30T03:27:41;100538.38;;;20.50;82.04
22333;BME280;11334;36.986;-121.936;2023-09-30T03:30:09;100539.50;;;20.42;82.35
22333;BME280;11334;36.986;-121.936;2023-09-30T03:32:37;100538.25;;;20.45;81.50
22333;BME280;11334;36.986;-121.936;2023-09-30T03:35:10;100533.69;;;20.45;80.67
22333;BME280;11334;36.986;-121.936;2023-09-30T03:37:41;100544.28;;;20.40;80.68
22333;BME280;11334;36.986;-121.936;2023-09-30T03:40:07;100540.56;;;20.41;80.35
22333;BME280;11334;36.986;-121.936;2023-09-30T03:42:45;100549.53;;;20.35;80.07
22333;BME280;11334;36.986;-121.936;2023-09-30T03:45:11;100545.41;;;20.33;79.64
22333;BME280;11334;36.986;-121.936;2023-09-30T03:47:41;100544.66;;;20.26;79.95
22333;BME280;11334;36.986;-121.936;2023-09-30T03:50:08;100543.78;;;20.32;79.23
22333;BME280;11334;36.986;-121.936;2023-09-30T03:52:42;100542.22;;;20.25;79.15
22333;BME280;11334;36.986;-121.936;2023-09-30T03:55:13;100546.06;;;20.11;78.96
22333;BME280;11334;36.986;-121.936;2023-09-30T03:57:43;100548.19;;;20.09;79.17
22333;BME280;11334;36.986;-121.936;2023-09-30T04:00:13;100544.47;;;20.03;78.89
22333;BME280;11334;36.986;-121.936;2023-09-30T04:02:42;100561.06;;;20.00;79.04
22333;BME280;11334;36.986;-121.936;2023-09-30T04:05:09;100557.56;;;20.00;78.83
22333;BME280;11334;36.986;-121.936;2023-09-30T04:07:38;100553.50;;;19.91;79.01
22333;BME280;11334;36.986;-121.936;2023-09-30T04:10:05;100556.19;;;19.91;79.06
22333;BME280;11334;36.986;-121.936;2023-09-30T04:12:31;100559.78;;;19.85;78.98
22333;BME280;11334;36.986;-121.936;2023-09-30T04:14:58;100559.59;;;19.80;78.76
22333;BME280;11334;36.986;-121.936;2023-09-30T04:17:25;100565.00;;;19.80;78.99
22333;BME280;11334;36.986;-121.936;2023-09-30T04:19:53;100562.75;;;19.77;78.80
22333;BME280;11334;36.986;-121.936;2023-09-30T04:22:19;100568.53;;;19.74;78.54
22333;BME280;11334;36.986;-121.936;2023-09-30T04:24:47;100565.22;;;19.72;78.63
22333;BME280;11334;36.986;-121.936;2023-09-30T04:27:16;100556.41;;;19.65;78.69
22333;BME280;11334;36.986;-121.936;2023-09-30T04:29:43;100562.41;;;19.61;79.08
22333;BME280;11334;36.986;-121.936;2023-09-30T04:32:09;100570.94;;;19.58;78.99
22333;BME280;11334;36.986;-121.936;2023-09-30T04:34:35;100572.91;;;19.45;79.59
22333;BME280;11334;36.986;-121.936;2023-09-30T04:37:02;100574.34;;;19.41;79.98
22333;BME280;11334;36.986;-121.936;2023-09-30T04:39:28;100575.19;;;19.41;79.53
22333;BME280;11334;36.986;-121.936;2023-09-30T04:41:54;100576.44;;;19.39;79.49
22333;BME280;11334;36.986;-121.936;2023-09-30T04:44:20;100568.38;;;19.39;79.54
22333;BME280;11334;36.986;-121.936;2023-09-30T04:46:48;100567.81;;;19.31;80.17
22333;BME280;11334;36.986;-121.936;2023-09-30T04:49:15;100575.28;;;19.29;80.28
22333;BME280;11334;36.986;-121.936;2023-09-30T04:51:41;100582.44;;;19.34;79.86
22333;BME280;11334;36.986;-121.936;2023-09-30T04:54:08;100570.34;;;19.26;80.10
22333;BME280;11334;36.986;-121.936;2023-09-30T04:56:37;100570.72;;;19.29;79.72
22333;BME280;11334;36.986;-121.936;2023-09-30T04:59:05;100580.63;;;19.29;80.10
22333;BME280;11334;36.986;-121.936;2023-09-30T05:01:32;100579.41;;;19.25;80.01
22333;BME280;11334;36.986;-121.936;2023-09-30T05:03:58;100579.41;;;19.25;79.72
22333;BME280;11334;36.986;-121.936;2023-09-30T05:06:25;100584.16;;;19.29;79.90
22333;BME280;11334;36.986;-121.936;2023-09-30T05:08:51;100575.72;;;19.26;79.73
22333;BME280;11334;36.986;-121.936;2023-09-30T05:11:17;100568.91;;;19.23;79.84
22333;BME280;11334;36.986;-121.936;2023-09-30T05:13:44;100574.28;;;19.23;79.77
22333;BME280;11334;36.986;-121.936;2023-09-30T05:16:11;100567.41;;;19.27;79.62
22333;BME280;11334;36.986;-121.936;2023-09-30T05:18:38;100569.72;;;19.24;79.84
22333;BME280;11334;36.986;-121.936;2023-09-30T05:21:05;100571.19;;;19.20;79.71
22333;BME280;11334;36.986;-121.936;2023-09-30T05:23:32;100566.41;;;19.22;79.84
22333;BME280;11334;36.986;-121.936;2023-09-30T05:25:58;100564.78;;;19.21;80.28
22333;BME280;11334;36.986;-121.936;2023-09-30T05:28:25;100568.50;;;19.20;80.61
22333;BME280;11334;36.986;-121.936;2023-09-30T05:30:51;100576.78;;;19.18;79.95
22333;BME280;11334;36.986;-121.936;2023-09-30T05:33:19;100574.53;;;19.15;80.01
22333;BME280;11334;36.986;-121.936;2023-09-30T05:35:45;100574.31;;;19.17;80.03
22333;BME280;11334;36.986;-121.936;2023-09-30T05:38:12;100570.78;;;19.16;80.17
22333;BME280;11334;36.986;-121.936;2023-09-30T05:40:39;100572.66;;;19.16;79.95
22333;BME280;11334;36.986;-121.936;2023-09-30T05:43:05;100567.91;;;19.18;80.43
22333;BME280;11334;36.986;-121.936;2023-09-30T05:45:32;100568.94;;;19.17;80.53
22333;BME280;11334;36.986;-121.936;2023-09-30T05:48:02;100567.91;;;19.18;80.63
22333;BME280;11334;36.986;-121.936;2023-09-30T05:50:33;100563.56;;;19.17;80.85
22333;BME280;11334;36.986;-121.936;2023-09-30T05:53:00;100576.59;;;19.13;80.29
22333;BME280;11334;36.986;-121.936;2023-09-30T05:55:26;100570.81;;;19.10;80.99
22333;BME280;11334;36.986;-121.936;2023-09-30T05:57:53;100566.50;;;19.09;80.93
22333;BME280;11334;36.986;-121.936;2023-09-30T06:00:20;100568.94;;;19.17;80.89
22333;BME280;11334;36.986;-121.936;2023-09-30T06:02:48;100565.03;;;19.13;80.59
22333;BME280;11334;36.986;-121.936;2023-09-30T06:05:14;100571.00;;;19.15;80.87
22333;BME280;11334;36.986;-121.936;2023-09-30T06:07:52;100565.03;;;19.13;80.37
22333;BME280;11334;36.986;-121.936;2023-09-30T06:10:20;100561.91;;;19.16;81.09
22333;BME280;11334;36.986;-121.936;2023-09-30T06:12:50;100567.28;;;19.16;81.32
22333;BME280;11334;36.986;-121.936;2023-09-30T06:15:25;100567.91;;;19.18;81.03
22333;BME280;11334;36.986;-121.936;2023-09-30T06:17:55;100568.53;;;19.13;81.67
22333;BME280;11334;36.986;-121.936;2023-09-30T06:20:22;100552.63;;;19.12;81.88
22333;BME280;11334;36.986;-121.936;2023-09-30T06:22:51;100569.97;;;19.16;81.75
22333;BME280;11334;36.986;-121.936;2023-09-30T06:25:21;100572.06;;;19.14;81.57
22333;BME280;11334;36.986;-121.936;2023-09-30T06:27:50;100565.03;;;19.13;81.64
22333;BME280;11334;36.986;-121.936;2023-09-30T06:30:17;100571.63;;;19.17;80.60
22333;BME280;11334;36.986;-121.936;2023-09-30T06:32:45;100570.78;;;19.16;79.72
22333;BME280;11334;36.986;-121.936;2023-09-30T06:35:11;100575.97;;;19.18;79.74
22333;BME280;11334;36.986;-121.936;2023-09-30T06:37:39;100579.47;;;19.18;79.86
22333;BME280;11334;36.986;-121.936;2023-09-30T06:40:10;100586.91;;;19.16;79.90
22333;BME280;11334;36.986;-121.936;2023-09-30T06:42:38;100579.41;;;19.25;78.92
22333;BME280;11334;36.986;-121.936;2023-09-30T06:45:06;100581.50;;;19.23;78.96
22333;BME280;11334;36.986;-121.936;2023-09-30T06:47:33;100587.97;;;19.15;79.20
22333;BME280;11334;36.986;-121.936;2023-09-30T06:50:01;100584.06;;;19.05;79.90
22333;BME280;11334;36.986;-121.936;2023-09-30T06:52:34;100588.25;;;19.01;80.13
22333;BME280;11334;36.986;-121.936;2023-09-30T06:55:04;100588.25;;;19.01;80.42
22333;BME280;11334;36.986;-121.936;2023-09-30T06:57:32;100569.88;;;18.98;80.64
22333;BME280;11334;36.986;-121.936;2023-09-30T06:59:58;100570.69;;;18.99;81.04
22333;BME280;11334;36.986;-121.936;2023-09-30T07:02:25;100571.72;;;18.98;81.38
22333;BME280;11334;36.986;-121.936;2023-09-30T07:04:52;100574.41;;;18.98;82.00
22333;BME280;11334;36.986;-121.936;2023-09-30T07:07:19;100570.06;;;18.97;82.13
22333;BME280;11334;36.986;-121.936;2023-09-30T07:09:45;100572.56;;;18.98;82.32
22333;BME280;11334;36.986;-121.936;2023-09-30T07:12:11;100571.31;;;19.00;82.67
22333;BME280;11334;36.986;-121.936;2023-09-30T07:14:37;100563.88;;;18.90;83.27
22333;BME280;11334;36.986;-121.936;2023-09-30T07:17:04;100565.53;;;18.97;83.32
22333;BME280;11334;36.986;-121.936;2023-09-30T07:19:30;100565.97;;;18.94;83.79
22333;BME280;11334;36.986;-121.936;2023-09-30T07:21:57;100563.47;;;18.99;83.99
22333;BME280;11334;36.986;-121.936;2023-09-30T07:24:23;100556.44;;;18.98;85.01
22333;BME280;11334;36.986;-121.936;2023-09-30T07:26:49;100563.88;;;18.96;85.79
22333;BME280;11334;36.986;-121.936;2023-09-30T07:29:15;100558.28;;;18.98;86.23
22333;BME280;11334;36.986;-121.936;2023-09-30T07:31:41;100560.16;;;18.97;86.66
22333;BME280;11334;36.986;-121.936;2023-09-30T07:34:08;100562.84;;;18.97;86.79
22333;BME280;11334;36.986;-121.936;2023-09-30T07:36:34;100558.09;;;18.99;87.08
22333;BME280;11334;36.986;-121.936;2023-09-30T07:39:03;100561.38;;;19.01;87.35
22333;BME280;11334;36.986;-121.936;2023-09-30T07:41:34;100565.72;;;19.02;88.14
22333;BME280;11334;36.986;-121.936;2023-09-30T07:44:02;100563.84;;;19.02;88.30
22333;BME280;11334;36.986;-121.936;2023-09-30T07:46:28;100565.06;;;19.06;90.01
22333;BME280;11334;36.986;-121.936;2023-09-30T07:48:56;100567.56;;;19.08;91.56
22333;BME280;11334;36.986;-121.936;2023-09-30T07:51:24;100564.88;;;19.08;93.98
22333;BME280;11334;36.986;-121.936;2023-09-30T07:53:50;100566.28;;;19.10;97.63
22333;BME280;11334;36.986;-121.936;2023-09-30T07:56:18;100566.75;;;19.01;97.75
22333;BME280;11334;36.986;-121.936;2023-09-30T07:58:44;100560.19;;;18.91;97.85
22333;BME280;11334;36.986;-121.936;2023-09-30T08:01:10;100567.44;;;18.77;98.89
22333;BME280;11334;36.986;-121.936;2023-09-30T08:03:37;100568.31;;;18.71;99.82
22333;BME280;11334;36.986;-121.936;2023-09-30T08:06:03;100561.13;;;18.66;100.00
22333;BME280;11334;36.986;-121.936;2023-09-30T08:08:30;100562.75;;;18.60;100.00
22333;BME280;11334;36.986;-121.936;2023-09-30T08:10:56;100568.38;;;18.59;100.00
22333;BME280;11334;36.986;-121.936;2023-09-30T08:13:23;100558.66;;;18.58;100.00
22333;BME280;11334;36.986;-121.936;2023-09-30T08:15:50;100563.63;;;18.54;100.00
22333;BME280;11334;36.986;-121.936;2023-09-30T08:18:17;100566.94;;;18.50;100.00
22333;BME280;11334;36.986;-121.936;2023-09-30T08:20:44;100562.19;;;18.52;100.00
22333;BME280;11334;36.986;-121.936;2023-09-30T08:23:13;100566.94;;;18.56;100.00
22333;BME280;11334;36.986;-121.936;2023-09-30T08:25:39;100567.75;;;18.57;100.00
22333;BME280;11334;36.986;-121.936;2023-09-30T08:28:05;100563.44;;;18.56;100.00
22333;BME280;11334;36.986;-121.936;2023-09-30T08:30:36;100576.59;;;18.64;100.00
22333;BME280;11334;36.986;-121.936;2023-09-30T08:33:02;100569.38;;;18.64;100.00
22333;BME280;11334;36.986;-121.936;2023-09-30T08:35:30;100578.47;;;18.63;100.00
22333;BME280;11334;36.986;-121.936;2023-09-30T08:37:57;100576.38;;;18.65;100.00
22333;BME280;11334;36.986;-121.936;2023-09-30T08:40:24;100575.34;;;18.66;100.00
22333;BME280;11334;36.986;-121.936;2023-09-30T08:42:53;100574.13;;;18.68;100.00
22333;BME280;11334;36.986;-121.936;2023-09-30T08:45:19;100569.94;;;18.72;100.00
22333;BME280;11334;36.986;-121.936;2023-09-30T08:47:46;100563.13;;;18.76;100.00
22333;BME280;11334;36.986;-121.936;2023-09-30T08:50:13;100562.75;;;18.73;100.00
22333;BME280;11334;36.986;-121.936;2023-09-30T08:52:44;100562.94;;;18.71;100.00
22333;BME280;11334;36.986;-121.936;2023-09-30T08:55:13;100559.44;;;18.71;100.00
22333;BME280;11334;36.986;-121.936;2023-09-30T08:57:41;100566.44;;;18.72;100.00
22333;BME280;11334;36.986;-121.936;2023-09-30T09:00:10;100560.88;;;18.73;100.00
22333;BME280;11334;36.986;-121.936;2023-09-30T09:02:40;100558.38;;;18.72;100.00
22333;BME280;11334;36.986;-121.936;2023-09-30T09:05:07;100554.50;;;18.68;100.00
22333;BME280;11334;36.986;-121.936;2023-09-30T09:07:35;100558.44;;;18.66;100.00
22333;BME280;11334;36.986;-121.936;2023-09-30T09:10:09;100544.59;;;18.62;100.00
22333;BME280;11334;36.986;-121.936;2023-09-30T09:12:39;100543.75;;;18.68;100.00
22333;BME280;11334;36.986;-121.936;2023-09-30T09:15:07;100546.44;;;18.68;100.00
22333;BME280;11334;36.986;-121.936;2023-09-30T09:17:44;100541.72;;;18.57;100.00
22333;BME280;11334;36.986;-121.936;2023-09-30T09:20:16;100532.59;;;18.65;100.00
22333;BME280;11334;36.986;-121.936;2023-09-30T09:22:47;100531.78;;;18.64;100.00
22333;BME280;11334;36.986;-121.936;2023-09-30T09:25:13;100528.06;;;18.65;100.00
22333;BME280;11334;36.986;-121.936;2023-09-30T09:27:39;100528.06;;;18.65;100.00
22333;BME280;11334;36.986;-121.936;2023-09-30T09:33:02;100522.31;;;18.62;100.00
22333;BME280;11334;36.986;-121.936;2023-09-30T09:35:32;100520.66;;;18.61;100.00
22333;BME280;11334;36.986;-121.936;2023-09-30T09:38:02;100509.09;;;18.60;100.00
22333;BME280;11334;36.986;-121.936;2023-09-30T09:40:37;100508.06;;;18.61;100.00
22333;BME280;11334;36.986;-121.936;2023-09-30T09:43:07;100507.84;;;18.63;100.00
22333;BME280;11334;36.986;-121.936;2023-09-30T09:45:34;100509.50;;;18.64;100.00
22333;BME280;11334;36.986;-121.936;2023-09-30T09:48:01;100505.78;;;18.65;100.00
22333;BME280;11334;36.986;-121.936;2023-09-30T09:50:30;100496.09;;;18.64;100.00
22333;BME280;11334;36.986;-121.936;2023-09-30T09:52:59;100502.88;;;18.66;100.00
22333;BME280;11334;36.986;-121.936;2023-09-30T09:55:26;100487.59;;;18.67;100.00
22333;BME280;11334;36.986;-121.936;2023-09-30T09:57:53;100492.59;;;18.63;100.00
22333;BME280;11334;36.986;-121.936;2023-09-30T10:00:25;100488.03;;;18.57;100.00
22333;BME280;11334;36.986;-121.936;2023-09-30T10:02:52;100492.59;;;18.57;100.00
22333;BME280;11334;36.986;-121.936;2023-09-30T10:05:19;100482.25;;;18.60;100.00
22333;BME280;11334;36.986;-121.936;2023-09-30T10:08:00;100477.28;;;18.64;100.00
22333;BME280;11334;36.986;-121.936;2023-09-30T10:10:30;100477.31;;;18.57;100.00
22333;BME280;11334;36.986;-121.936;2023-09-30T10:13:01;100489.03;;;18.63;100.00
22333;BME280;11334;36.986;-121.936;2023-09-30T10:18:07;100464.72;;;18.58;100.00
22333;BME280;11334;36.986;-121.936;2023-09-30T10:20:37;100453.38;;;18.56;100.00
22333;BME280;11334;36.986;-121.936;2023-09-30T10:23:21;100446.34;;;18.55;100.00
22333;BME280;11334;36.986;-121.936;2023-09-30T10:25:49;100453.38;;;18.56;100.00
22333;BME280;11334;36.986;-121.936;2023-09-30T10:28:42;100447.19;;;18.55;100.00
22333;BME280;11334;36.986;-121.936;2023-09-30T10:31:16;100439.97;;;18.56;100.00
22333;BME280;11334;36.986;-121.936;2023-09-30T10:36:39;100447.00;;;18.50;100.00
22333;BME280;11334;36.986;-121.936;2023-09-30T10:39:06;100452.34;;;18.57;100.00
22333;BME280;11334;36.986;-121.936;2023-09-30T10:47:58;100452.34;;;18.57;100.00
22333;BME280;11334;36.986;-121.936;2023-09-30T10:49:53;100450.28;;;18.52;100.00
22333;BME280;11334;36.986;-121.936;2023-09-30T10:52:22;100451.97;;;18.53;100.00
22333;BME280;11334;36.986;-121.936;2023-09-30T10:54:50;100446.78;;;18.52;100.00
22333;BME280;11334;36.986;-121.936;2023-09-30T10:57:28;100452.97;;;18.52;100.00
22333;BME280;11334;36.986;-121.936;2023-09-30T11:00:08;100442.69;;;18.49;100.00
22333;BME280;11334;36.986;-121.936;2023-09-30T11:02:48;100448.88;;;18.50;100.00
22333;BME280;11334;36.986;-121.936;2023-09-30T11:05:14;100449.72;;;18.44;100.00
22333;BME280;11334;36.986;-121.936;2023-09-30T11:07:41;100446.44;;;18.42;100.00
22333;BME280;11334;36.986;-121.936;2023-09-30T11:10:09;100454.28;;;18.43;100.00
22333;BME280;11334;36.986;-121.936;2023-09-30T11:12:37;100451.38;;;18.45;100.00
22333;BME280;11334;36.986;-121.936;2023-09-30T11:15:04;100443.53;;;18.43;100.00
22333;BME280;11334;36.986;-121.936;2023-09-30T11:17:32;100450.97;;;18.41;100.00
22333;BME280;11334;36.986;-121.936;2023-09-30T11:19:58;100455.13;;;18.37;100.00
22333;BME280;11334;36.986;-121.936;2023-09-30T11:22:25;100455.75;;;18.33;100.00
22333;BME280;11334;36.986;-121.936;2023-09-30T11:24:53;100457.41;;;18.34;100.00
22333;BME280;11334;36.986;-121.936;2023-09-30T11:27:25;100458.25;;;18.28;100.00
22333;BME280;11334;36.986;-121.936;2023-09-30T11:29:52;100459.72;;;18.24;100.00
22333;BME280;11334;36.986;-121.936;2023-09-30T11:32:28;100464.09;;;18.19;100.00
22333;BME280;11334;36.986;-121.936;2023-09-30T11:34:55;100467.59;;;18.19;100.00
22333;BME280;11334;36.986;-121.936;2023-09-30T11:37:21;100458.31;;;18.15;100.00
22333;BME280;11334;36.986;-121.936;2023-09-30T11:39:47;100453.97;;;18.14;100.00
22333;BME280;11334;36.986;-121.936;2023-09-30T11:42:18;100453.56;;;18.11;100.00
22333;BME280;11334;36.986;-121.936;2023-09-30T11:44:46;100452.34;;;18.07;100.00
22333;BME280;11334;36.986;-121.936;2023-09-30T11:47:16;100451.13;;;18.09;100.00
22333;BME280;11334;36.986;-121.936;2023-09-30T11:49:43;100456.25;;;18.11;100.00
22333;BME280;11334;36.986;-121.936;2023-09-30T11:52:15;100450.69;;;18.12;100.00
22333;BME280;11334;36.986;-121.936;2023-09-30T11:54:42;100457.47;;;18.15;100.00
22333;BME280;11334;36.986;-121.936;2023-09-30T11:57:16;100455.63;;;18.15;100.00
22333;BME280;11334;36.986;-121.936;2023-09-30T11:59:45;100451.50;;;18.13;100.00
22333;BME280;11334;36.986;-121.936;2023-09-30T12:02:15;100448.19;;;18.17;100.00
22333;BME280;11334;36.986;-121.936;2023-09-30T12:04:46;100451.06;;;18.22;100.00
22333;BME280;11334;36.986;-121.936;2023-09-30T12:07:15;100451.88;;;18.23;100.00
22333;BME280;11334;36.986;-121.936;2023-09-30T12:09:41;100455.81;;;18.20;100.00
22333;BME280;11334;36.986;-121.936;2023-09-30T12:12:08;100444.66;;;18.23;100.00
22333;BME280;11334;36.986;-121.936;2023-09-30T12:14:40;100438.91;;;18.20;100.00
22333;BME280;11334;36.986;-121.936;2023-09-30T12:17:06;100438.06;;;18.19;100.00
22333;BME280;11334;36.986;-121.936;2023-09-30T12:19:37;100446.94;;;18.20;100.00
22333;BME280;11334;36.986;-121.936;2023-09-30T12:22:03;100454.16;;;18.19;100.00
22333;BME280;11334;36.986;-121.936;2023-09-30T12:24:29;100438.28;;;18.18;100.00
22333;BME280;11334;36.986;-121.936;2023-09-30T12:26:55;100453.38;;;18.12;100.00
22333;BME280;11334;36.986;-121.936;2023-09-30T12:29:23;100449.88;;;18.05;100.00
22333;BME280;11334;36.986;-121.936;2023-09-30T12:31:51;100444.72;;;17.98;100.00
22333;BME280;11334;36.986;-121.936;2023-09-30T12:34:18;100450.31;;;17.90;100.00
22333;BME280;11334;36.986;-121.936;2023-09-30T12:36:44;100446.63;;;17.84;100.00